Terminal Aerodrome Forecast
Issued by NWS

Home | Current Version | Previous Version | Text Only | Print | Product List | Glossary On
Versions: 1 2 3 4 5 6 7 8 9 10 11 12 13 14 15 16 17 18 19
000
FTUS43 KGRR 241700
TAFMKG
TAF
KMKG 241735Z 2418/2518 25006KT P6SM OVC009
     FM241900 23007KT P6SM BKN011
     FM250000 18005KT P6SM SCT035
     FM250900 15003KT 4SM BR OVC007
     FM251200 26006KT 4SM BR OVC015
     FM251500 29008KT P6SM SKC=

USA.gov is the U.S. government's official web portal to all federal, state and local government web resources and services.